Time;durP1;ratioP1;P1;durP2;ratioP2;P2;SDS_P1;SDS_P2;PMS_P1;PMS_P2;Temp;Humidity;BMP_temperature;BMP_pressure;BME280_temperature;BME280_humidity;BME280_pressure;Samples;Min_cycle;Max_cycle;Signal;HPM_P1;HPM_P2
2022/05/05 00:00:48;;;;;;;25.10;20.77;;;;;;;11.25;100.00;98302.47;5073794;28;20219;-69
2022/05/05 00:03:15;;;;;;;24.77;19.90;;;;;;;11.25;100.00;98299.84;5071232;28;20227;-69
2022/05/05 00:05:42;;;;;;;25.07;21.67;;;;;;;11.24;100.00;98300.75;5073772;28;20218;-69
2022/05/05 00:08:09;;;;;;;26.73;21.77;;;;;;;11.23;100.00;98301.72;5073615;28;20219;-69
2022/05/05 00:16:03;;;;;;;24.17;20.40;;;;;;;11.33;100.00;98316.03;5073131;28;20308;-69
2022/05/05 00:18:30;;;;;;;26.10;20.87;;;;;;;11.35;100.00;98306.16;5073343;28;20223;-69
2022/05/05 00:20:57;;;;;;;24.67;20.80;;;;;;;11.36;100.00;98305.19;5070922;28;20299;-69
2022/05/05 00:23:23;;;;;;;24.13;20.77;;;;;;;11.37;100.00;98294.53;5071671;28;20224;-70
2022/05/05 00:25:50;;;;;;;25.20;21.30;;;;;;;11.38;100.00;98295.38;5073129;28;20203;-68
2022/05/05 00:28:16;;;;;;;22.40;20.00;;;;;;;11.38;100.00;98290.09;5073201;28;20222;-69
2022/05/05 00:30:43;;;;;;;21.53;18.67;;;;;;;11.39;100.00;98291.78;5073170;28;20249;-69
2022/05/05 00:33:09;;;;;;;26.57;20.70;;;;;;;11.39;100.00;98286.47;5073311;28;20217;-69
2022/05/05 00:35:37;;;;;;;23.67;20.07;;;;;;;11.34;100.00;98281.53;5073269;28;20212;-69
2022/05/05 00:38:04;;;;;;;23.37;19.80;;;;;;;11.27;100.00;98282.91;5068848;28;20221;-69
2022/05/05 00:40:31;;;;;;;23.33;19.93;;;;;;;11.29;100.00;98286.28;5072934;28;20221;-69
2022/05/05 00:42:59;;;;;;;21.30;18.73;;;;;;;11.28;100.00;98286.38;5072799;28;20239;-68
2022/05/05 00:45:25;;;;;;;22.57;19.70;;;;;;;11.27;100.00;98282.03;5073152;28;20234;-69
2022/05/05 00:47:52;;;;;;;21.57;18.30;;;;;;;11.27;100.00;98282.91;5072401;28;20207;-68
2022/05/05 00:50:20;;;;;;;22.63;18.97;;;;;;;11.27;100.00;98287.34;5071998;28;20211;-69
2022/05/05 00:52:48;;;;;;;22.47;18.23;;;;;;;11.25;100.00;98278.66;5073046;28;20261;-69
2022/05/05 00:55:14;;;;;;;19.90;17.07;;;;;;;11.24;100.00;98287.53;5072985;28;20219;-69
2022/05/05 00:57:41;;;;;;;21.03;18.20;;;;;;;11.20;100.00;98281.59;5072769;28;20212;-69
2022/05/05 01:00:09;;;;;;;20.37;18.10;;;;;;;11.17;100.00;98273.91;5077039;28;20591;-69
2022/05/05 01:02:36;;;;;;;21.90;19.43;;;;;;;11.18;100.00;98283.53;5076968;28;20213;-69
2022/05/05 01:05:03;;;;;;;21.10;18.53;;;;;;;11.18;100.00;98282.69;5076864;28;20220;-69
2022/05/05 01:07:29;;;;;;;22.20;19.17;;;;;;;11.18;100.00;98288.00;5076904;28;20222;-69
2022/05/05 01:09:57;;;;;;;24.50;20.90;;;;;;;11.20;100.00;98288.72;5076801;28;20211;-69
2022/05/05 01:12:29;;;;;;;21.83;18.53;;;;;;;11.19;100.00;98284.38;5075722;28;20243;-68
2022/05/05 01:14:55;;;;;;;24.47;20.10;;;;;;;11.17;100.00;98286.28;5075197;28;20226;-69
2022/05/05 01:17:22;;;;;;;21.97;18.73;;;;;;;11.19;100.00;98289.69;5076750;28;20219;-70
2022/05/05 01:19:49;;;;;;;23.03;19.13;;;;;;;11.18;100.00;98288.00;5076736;28;20219;-69
2022/05/05 01:22:17;;;;;;;23.73;20.17;;;;;;;11.15;100.00;98282.88;5076494;28;20218;-69
2022/05/05 01:30:13;;;;;;;24.00;20.00;;;;;;;11.06;100.00;98294.13;5068487;28;20219;-69
2022/05/05 01:32:39;;;;;;;23.50;20.57;;;;;;;11.09;100.00;98302.69;5076385;28;20235;-69
2022/05/05 01:35:07;;;;;;;24.60;20.07;;;;;;;11.13;100.00;98305.97;5071911;28;20233;-69
2022/05/05 01:37:35;;;;;;;24.23;19.53;;;;;;;11.12;100.00;98299.00;5076006;28;20298;-70
2022/05/05 01:40:01;;;;;;;21.90;19.47;;;;;;;11.07;100.00;98307.22;5075657;28;20677;-68
2022/05/05 01:42:28;;;;;;;21.43;18.53;;;;;;;11.03;100.00;98307.53;5075206;28;20725;-69
2022/05/05 01:44:54;;;;;;;21.33;18.23;;;;;;;10.98;100.00;98299.06;5071455;28;20208;-69
2022/05/05 01:47:21;;;;;;;21.07;18.53;;;;;;;10.93;100.00;98299.38;5075851;28;20208;-69
2022/05/05 01:49:47;;;;;;;25.30;20.70;;;;;;;10.91;100.00;98311.00;5076102;28;20556;-69
2022/05/05 01:52:14;;;;;;;24.27;20.90;;;;;;;10.90;100.00;98301.38;5075771;28;20250;-69
2022/05/05 01:54:42;;;;;;;27.93;23.03;;;;;;;10.91;100.00;98303.94;5075814;28;20222;-69
2022/05/05 01:57:09;;;;;;;24.33;21.50;;;;;;;10.87;100.00;98312.16;5076153;28;20220;-68
2022/05/05 01:59:36;;;;;;;28.07;22.07;;;;;;;10.83;100.00;98302.75;5067464;28;20210;-69
2022/05/05 02:02:03;;;;;;;29.17;23.00;;;;;;;10.80;100.00;98302.94;5076012;28;20566;-68
2022/05/05 02:04:30;;;;;;;29.40;23.40;;;;;;;10.78;100.00;98295.16;5071387;28;20219;-68
2022/05/05 02:06:56;;;;;;;31.30;25.50;;;;;;;10.75;100.00;98297.13;5074179;28;20211;-69
2022/05/05 02:09:23;;;;;;;32.27;24.83;;;;;;;10.66;100.00;98295.97;5075124;28;20218;-69
2022/05/05 02:11:50;;;;;;;31.13;24.07;;;;;;;10.67;100.00;98302.09;5075099;28;20240;-69
2022/05/05 02:14:17;;;;;;;31.27;24.13;;;;;;;10.63;100.00;98297.94;5075346;28;20226;-69
2022/05/05 02:16:43;;;;;;;25.20;21.80;;;;;;;10.63;100.00;98303.22;5075621;28;20627;-68
2022/05/05 02:19:10;;;;;;;27.87;22.57;;;;;;;10.61;100.00;98291.91;5075446;28;20253;-69
2022/05/05 02:21:36;;;;;;;26.80;20.87;;;;;;;10.60;100.00;98301.66;5075604;28;20211;-69
2022/05/05 02:24:03;;;;;;;25.47;20.77;;;;;;;10.59;100.00;98299.13;5075578;28;20216;-69
2022/05/05 02:26:29;;;;;;;27.93;21.67;;;;;;;10.57;100.00;98301.00;5075099;28;20213;-69
2022/05/05 02:28:57;;;;;;;27.10;20.80;;;;;;;10.54;100.00;98303.84;5075342;28;20211;-69
2022/05/05 02:31:24;;;;;;;25.53;20.87;;;;;;;10.43;100.00;98309.00;5075321;28;20235;-69
2022/05/05 02:33:50;;;;;;;24.77;20.07;;;;;;;10.30;100.00;98303.69;5073569;28;20551;-68
2022/05/05 02:39:00;;;;;;;24.53;19.13;;;;;;;10.08;100.00;98305.16;5053855;28;20223;-69
2022/05/05 02:41:26;;;;;;;26.83;20.97;;;;;;;10.00;100.00;98310.06;5074937;28;20673;-68
2022/05/05 02:43:53;;;;;;;25.30;20.40;;;;;;;9.98;100.00;98311.94;5074898;28;20744;-71
2022/05/05 02:46:21;;;;;;;26.83;21.73;;;;;;;9.87;100.00;98311.78;5074847;28;20216;-70
2022/05/05 02:48:47;;;;;;;25.80;20.47;;;;;;;9.86;100.00;98315.38;5074799;28;20225;-68
2022/05/05 02:51:13;;;;;;;25.53;21.07;;;;;;;9.83;100.00;98313.78;5074693;28;20232;-70
2022/05/05 02:56:24;;;;;;;25.37;20.57;;;;;;;9.84;100.00;98309.34;5072918;28;20222;-69
2022/05/05 02:58:50;;;;;;;24.17;20.17;;;;;;;9.79;100.00;98314.91;5073287;28;20218;-68
2022/05/05 03:01:17;;;;;;;26.53;20.40;;;;;;;9.78;100.00;98315.03;5074500;28;20224;-69
2022/05/05 03:03:45;;;;;;;24.80;20.67;;;;;;;9.74;100.00;98313.50;5074776;28;20227;-69
2022/05/05 03:06:11;;;;;;;28.73;23.07;;;;;;;9.66;100.00;98310.50;5074652;28;20218;-68
2022/05/05 03:08:38;;;;;;;30.17;23.23;;;;;;;9.60;100.00;98317.00;5074477;28;20214;-69
2022/05/05 03:11:05;;;;;;;29.80;22.70;;;;;;;9.61;100.00;98302.84;5074542;28;20222;-69
2022/05/05 03:13:31;;;;;;;26.93;22.00;;;;;;;9.62;100.00;98309.81;5074674;28;20221;-67
2022/05/05 03:15:58;;;;;;;29.93;23.37;;;;;;;9.63;100.00;98308.03;5071940;28;20208;-68
2022/05/05 03:18:24;;;;;;;29.43;22.53;;;;;;;9.59;100.00;98309.16;5072229;28;20225;-68
2022/05/05 03:20:52;;;;;;;22.90;19.47;;;;;;;9.57;100.00;98311.06;5074338;28;20211;-68
2022/05/05 03:23:18;;;;;;;20.97;17.63;;;;;;;9.50;100.00;98315.03;5074530;28;20215;-68
2022/05/05 03:25:45;;;;;;;20.10;17.53;;;;;;;9.46;100.00;98308.25;5072590;28;20204;-68
2022/05/05 03:28:11;;;;;;;22.10;17.93;;;;;;;9.44;100.00;98310.13;5074291;28;20212;-68
2022/05/05 03:30:40;;;;;;;25.37;20.67;;;;;;;9.43;100.00;98314.56;5074320;28;20216;-68
2022/05/05 03:33:07;;;;;;;26.37;20.87;;;;;;;9.53;100.00;98314.81;5069806;28;20250;-68
2022/05/05 03:35:34;;;;;;;25.70;20.13;;;;;;;9.55;100.00;98308.53;5074065;28;20227;-68
2022/05/05 03:38:02;;;;;;;26.63;19.20;;;;;;;9.62;100.00;98320.38;5074365;28;20276;-68
2022/05/05 03:40:28;;;;;;;25.20;20.23;;;;;;;9.69;100.00;98316.44;5073983;28;20224;-70
2022/05/05 03:42:54;;;;;;;24.53;18.93;;;;;;;9.79;100.00;98311.44;5073870;28;20242;-68
2022/05/05 03:45:21;;;;;;;26.50;21.33;;;;;;;9.83;100.00;98318.19;5073899;28;20212;-68
2022/05/05 03:47:47;;;;;;;23.83;20.33;;;;;;;9.83;100.00;98319.06;5073988;28;20222;-68
2022/05/05 03:50:14;;;;;;;23.53;18.90;;;;;;;9.87;100.00;98325.84;5072789;28;20207;-68
2022/05/05 03:52:40;;;;;;;19.53;17.17;;;;;;;9.91;100.00;98322.03;5073312;28;20237;-68
2022/05/05 03:55:09;;;;;;;20.07;17.63;;;;;;;9.91;100.00;98329.97;5073855;28;20232;-68
2022/05/05 03:57:35;;;;;;;23.13;18.77;;;;;;;9.94;100.00;98336.84;5064778;28;20241;-68
2022/05/05 04:00:03;;;;;;;23.00;18.23;;;;;;;9.95;100.00;98334.13;5073780;28;20225;-69
2022/05/05 04:02:30;;;;;;;20.30;17.60;;;;;;;9.98;100.00;98336.53;5073624;28;20580;-69
2022/05/05 04:04:57;;;;;;;19.50;16.63;;;;;;;9.99;100.00;98333.00;5073624;28;20214;-68
2022/05/05 04:07:23;;;;;;;20.27;17.17;;;;;;;9.99;100.00;98335.63;5073522;28;20225;-68
2022/05/05 04:09:50;;;;;;;22.67;18.50;;;;;;;10.05;100.00;98344.97;5073511;28;20209;-68
2022/05/05 04:12:18;;;;;;;21.40;17.50;;;;;;;10.07;100.00;98335.16;5073422;28;20604;-69
2022/05/05 04:14:44;;;;;;;21.87;18.43;;;;;;;10.13;100.00;98332.13;5073659;28;20564;-69
2022/05/05 04:17:11;;;;;;;21.03;17.83;;;;;;;10.16;100.00;98331.94;5071852;28;20215;-68
2022/05/05 04:19:39;;;;;;;18.93;16.50;;;;;;;10.17;100.00;98345.06;5073337;28;20219;-69
2022/05/05 04:22:05;;;;;;;22.07;17.33;;;;;;;10.11;100.00;98344.59;5073021;28;20218;-68
2022/05/05 04:24:32;;;;;;;21.37;16.93;;;;;;;10.01;100.00;98348.72;5073131;28;20215;-68
2022/05/05 04:26:59;;;;;;;21.13;16.60;;;;;;;10.01;100.00;98354.00;5072872;28;20705;-68
2022/05/05 04:29:27;;;;;;;20.53;17.57;;;;;;;10.03;100.00;98352.97;5073303;28;20218;-68
2022/05/05 04:31:53;;;;;;;21.93;17.90;;;;;;;10.08;100.00;98356.19;5073189;28;20239;-67
2022/05/05 04:34:20;;;;;;;20.67;16.87;;;;;;;10.09;100.00;98359.69;5072657;28;20216;-68
2022/05/05 04:36:46;;;;;;;20.20;16.93;;;;;;;10.08;100.00;98363.25;5073130;28;20246;-68
2022/05/05 04:39:13;;;;;;;19.60;16.37;;;;;;;10.11;100.00;98371.00;5073169;28;20238;-68
2022/05/05 04:41:39;;;;;;;22.90;17.10;;;;;;;10.12;100.00;98370.03;5072572;28;20667;-68
2022/05/05 04:44:06;;;;;;;20.50;17.23;;;;;;;10.17;100.00;98370.59;5071304;28;20217;-68
2022/05/05 04:46:34;;;;;;;22.43;17.73;;;;;;;10.22;100.00;98373.81;5073217;28;20219;-68
2022/05/05 04:49:00;;;;;;;22.03;16.40;;;;;;;10.26;100.00;98372.63;5073022;28;20226;-68
2022/05/05 04:51:27;;;;;;;20.93;16.80;;;;;;;10.34;100.00;98378.31;5073081;28;20208;-68
2022/05/05 04:53:53;;;;;;;19.27;16.03;;;;;;;10.44;100.00;98374.09;5072914;28;20213;-68
2022/05/05 04:56:19;;;;;;;21.97;17.70;;;;;;;10.47;100.00;98374.75;5073005;28;20212;-68
2022/05/05 04:58:46;;;;;;;18.40;15.57;;;;;;;10.46;100.00;98373.06;5072744;28;20211;-68
2022/05/05 05:01:12;;;;;;;21.13;17.17;;;;;;;10.40;100.00;98383.19;5072627;28;20247;-68
2022/05/05 05:03:40;;;;;;;20.57;16.83;;;;;;;10.41;100.00;98374.31;5072921;28;20211;-68
2022/05/05 05:06:08;;;;;;;20.43;16.37;;;;;;;10.42;100.00;98373.38;5070163;28;20218;-68
2022/05/05 05:08:35;;;;;;;20.23;16.53;;;;;;;10.41;100.00;98369.03;5070998;28;20215;-68
2022/05/05 05:11:02;;;;;;;20.47;16.97;;;;;;;10.35;100.00;98369.44;5072922;28;20220;-68
2022/05/05 05:13:28;;;;;;;19.93;17.00;;;;;;;10.26;100.00;98370.00;5072882;28;20246;-68
2022/05/05 05:15:55;;;;;;;20.30;16.37;;;;;;;10.29;100.00;98381.22;5069844;28;20222;-68
2022/05/05 05:18:21;;;;;;;21.03;17.00;;;;;;;10.41;100.00;98380.44;5072578;28;20234;-69
2022/05/05 05:20:49;;;;;;;20.73;17.30;;;;;;;10.56;100.00;98381.22;5072773;28;20211;-69
2022/05/05 05:23:16;;;;;;;20.33;17.53;;;;;;;10.69;100.00;98379.47;5072841;28;20241;-68
2022/05/05 05:25:42;;;;;;;21.80;17.40;;;;;;;10.81;100.00;98370.75;5072620;28;20211;-69
2022/05/05 05:28:09;;;;;;;20.87;16.87;;;;;;;10.90;100.00;98373.63;5072706;28;20297;-68
2022/05/05 05:30:36;;;;;;;19.47;15.80;;;;;;;10.97;100.00;98382.00;5072652;28;20325;-68
2022/05/05 05:33:02;;;;;;;20.50;16.00;;;;;;;11.04;100.00;98378.00;5072255;28;20245;-68
2022/05/05 05:35:29;;;;;;;16.43;14.10;;;;;;;11.18;100.00;98388.50;5070960;28;20222;-68
2022/05/05 05:37:57;;;;;;;18.50;15.53;;;;;;;11.33;100.00;98392.75;5072643;28;20212;-68
2022/05/05 05:40:23;;;;;;;19.57;16.67;;;;;;;11.47;100.00;98395.28;5072407;28;20219;-68
2022/05/05 05:42:50;;;;;;;20.47;17.23;;;;;;;11.55;100.00;98398.28;5072176;28;20246;-68
2022/05/05 05:45:18;;;;;;;20.83;17.20;;;;;;;11.66;100.00;98395.75;5074458;28;20222;-68
2022/05/05 05:47:45;;;;;;;19.13;16.37;;;;;;;11.72;100.00;98395.31;5067707;28;20215;-68
2022/05/05 05:50:12;;;;;;;18.93;16.07;;;;;;;11.82;100.00;98402.56;5076096;28;20238;-70
2022/05/05 05:52:38;;;;;;;20.07;16.53;;;;;;;11.89;100.00;98405.59;5075824;28;20314;-68
2022/05/05 05:55:07;;;;;;;17.70;15.73;;;;;;;11.99;100.00;98398.72;5076092;28;20230;-68
2022/05/05 05:57:34;;;;;;;18.70;16.33;;;;;;;12.12;100.00;98402.19;5067137;28;20218;-68
2022/05/05 06:00:00;;;;;;;22.10;16.60;;;;;;;12.21;100.00;98402.38;5075978;28;20212;-68
2022/05/05 06:05:11;;;;;;;17.40;14.97;;;;;;;12.28;100.00;98406.28;5073779;28;20222;-68
2022/05/05 06:07:38;;;;;;;18.83;15.90;;;;;;;12.39;100.00;98408.16;5076016;28;20249;-69
2022/05/05 06:10:07;;;;;;;17.43;15.17;;;;;;;12.49;100.00;98417.13;5075648;28;20218;-69
2022/05/05 06:12:33;;;;;;;16.80;14.43;;;;;;;12.57;100.00;98417.41;5075417;28;20711;-68
2022/05/05 06:14:59;;;;;;;16.40;13.77;;;;;;;12.65;100.00;98415.91;5075852;28;20563;-68
2022/05/05 06:17:26;;;;;;;15.87;14.20;;;;;;;12.74;100.00;98419.69;5075682;28;20234;-68
2022/05/05 06:19:52;;;;;;;15.47;13.67;;;;;;;12.84;100.00;98426.84;5075530;28;20222;-68
2022/05/05 06:22:19;;;;;;;15.83;14.07;;;;;;;12.93;100.00;98430.66;5075295;28;20221;-67
2022/05/05 06:24:45;;;;;;;17.03;14.60;;;;;;;13.02;100.00;98422.06;5073045;28;20213;-68
2022/05/05 06:27:13;;;;;;;15.47;13.80;;;;;;;13.12;100.00;98431.00;5073842;28;20207;-68
2022/05/05 06:29:40;;;;;;;15.07;13.47;;;;;;;13.25;100.00;98431.78;5075110;28;20214;-68
2022/05/05 06:32:07;;;;;;;14.57;13.07;;;;;;;13.39;100.00;98439.56;5075002;28;20688;-68
2022/05/05 06:34:33;;;;;;;15.87;14.07;;;;;;;13.46;100.00;98440.78;5075220;28;20573;-69
2022/05/05 06:37:00;;;;;;;14.17;12.77;;;;;;;13.50;100.00;98444.91;5075382;28;20211;-68
2022/05/05 06:39:26;;;;;;;13.07;11.67;;;;;;;13.54;100.00;98449.00;5075298;28;20219;-68
2022/05/05 06:41:53;;;;;;;14.50;13.00;;;;;;;13.52;100.00;98446.47;5070380;28;20216;-68
2022/05/05 06:44:20;;;;;;;14.17;12.67;;;;;;;13.49;100.00;98449.38;5075236;28;20216;-68
2022/05/05 06:46:47;;;;;;;14.73;13.17;;;;;;;13.48;100.00;98445.03;5074994;28;20580;-68
2022/05/05 06:49:14;;;;;;;14.63;13.10;;;;;;;13.48;100.00;98450.34;5075123;28;20581;-69
2022/05/05 06:51:40;;;;;;;14.07;12.53;;;;;;;13.52;100.00;98450.94;5074746;28;20224;-68
2022/05/05 06:54:07;;;;;;;13.83;12.10;;;;;;;13.57;100.00;98454.09;5073039;28;20243;-67
2022/05/05 06:56:33;;;;;;;13.50;12.10;;;;;;;13.58;100.00;98455.78;5065682;28;20208;-67
2022/05/05 06:58:59;;;;;;;14.93;13.17;;;;;;;13.63;100.00;98458.94;5074949;28;20221;-69
2022/05/05 07:06:56;;;;;;;10.10;9.20;;;;;;;13.53;100.00;98461.47;5074512;28;20730;-69
2022/05/05 07:12:07;;;;;;;9.07;8.17;;;;;;;13.38;100.00;98472.41;5072954;28;20218;-69
2022/05/05 07:14:33;;;;;;;9.80;8.83;;;;;;;13.43;100.00;98473.72;5074588;28;20219;-67
2022/05/05 07:17:01;;;;;;;9.70;8.80;;;;;;;13.46;100.00;98467.34;5074140;28;20226;-67
2022/05/05 07:19:27;;;;;;;8.70;7.90;;;;;;;13.51;100.00;98473.16;5072584;28;20691;-68
2022/05/05 07:21:54;;;;;;;9.90;8.90;;;;;;;13.52;100.00;98477.50;5074179;28;20211;-68
2022/05/05 07:24:21;;;;;;;8.80;7.93;;;;;;;13.53;100.00;98476.53;5074440;28;20212;-68
2022/05/05 07:26:47;;;;;;;9.80;8.80;;;;;;;13.60;100.00;98475.09;5073883;28;20212;-69
2022/05/05 07:29:14;;;;;;;9.33;8.40;;;;;;;13.68;100.00;98483.34;5070636;28;20227;-69
2022/05/05 07:31:41;;;;;;;8.57;7.70;;;;;;;13.81;100.00;98481.44;5074310;28;20215;-68
2022/05/05 07:34:09;;;;;;;9.73;8.10;;;;;;;13.95;100.00;98475.91;5073814;28;20736;-68
2022/05/05 07:36:36;;;;;;;9.03;8.13;;;;;;;14.14;100.00;98481.50;5074075;28;20213;-67
2022/05/05 07:39:02;;;;;;;8.83;7.90;;;;;;;14.41;100.00;98480.22;5073855;28;20693;-68
2022/05/05 07:41:29;;;;;;;8.87;7.97;;;;;;;14.66;100.00;98484.44;5073221;28;20207;-67
2022/05/05 07:43:56;;;;;;;9.00;8.10;;;;;;;14.73;100.00;98485.63;5072630;28;20639;-69
2022/05/05 07:46:23;;;;;;;8.70;7.90;;;;;;;14.75;100.00;98484.53;5070980;28;20212;-67
2022/05/05 07:48:50;;;;;;;9.03;8.20;;;;;;;14.71;100.00;98483.09;5083557;28;20257;-68
2022/05/05 07:51:18;;;;;;;9.73;8.63;;;;;;;14.65;100.00;98480.06;5070027;28;20585;-69
2022/05/05 07:54:34;;;;;;;9.23;8.30;;;;;;;14.68;100.00;98488.66;5065212;28;20237;-68
2022/05/05 07:56:31;;;;;;;10.07;9.07;;;;;;;14.78;100.00;98486.13;5072142;28;20278;-68
2022/05/05 07:58:57;;;;;;;11.87;9.67;;;;;;;14.77;100.00;98487.06;5070908;28;20209;-68
2022/05/05 08:01:24;;;;;;;11.00;8.90;;;;;;;14.82;100.00;98490.19;5072249;28;20587;-69
2022/05/05 08:03:50;;;;;;;11.33;8.87;;;;;;;14.90;100.00;98493.09;5072293;28;20590;-69
2022/05/05 08:06:18;;;;;;;10.83;9.43;;;;;;;14.89;100.00;98494.06;5071985;28;20215;-67
2022/05/05 08:08:44;;;;;;;12.40;10.27;;;;;;;14.90;98.77;98493.09;5071133;28;20214;-69
2022/05/05 08:11:11;;;;;;;11.73;10.50;;;;;;;14.78;99.94;98494.09;5070590;28;20444;-67
2022/05/05 08:13:37;;;;;;;10.63;9.53;;;;;;;14.73;100.00;98498.94;5072136;28;20238;-67
2022/05/05 08:16:04;;;;;;;10.97;9.50;;;;;;;14.90;100.00;98498.44;5071913;28;20223;-67
2022/05/05 08:18:30;;;;;;;11.27;10.13;;;;;;;15.05;100.00;98507.81;5071879;28;20217;-68
2022/05/05 08:20:57;;;;;;;11.80;10.60;;;;;;;14.99;100.00;98513.66;5071757;28;20216;-68
2022/05/05 08:23:25;;;;;;;11.93;10.80;;;;;;;14.95;99.05;98506.88;5070426;28;20274;-68
2022/05/05 08:28:36;;;;;;;9.80;8.90;;;;;;;14.79;100.00;98511.75;5062074;28;20221;-68
2022/05/05 08:31:03;;;;;;;13.13;11.30;;;;;;;14.81;100.00;98509.81;5069752;28;20269;-67
2022/05/05 08:33:30;;;;;;;11.53;10.43;;;;;;;14.89;100.00;98512.69;5067241;28;20245;-68
2022/05/05 08:35:58;;;;;;;14.13;12.73;;;;;;;14.89;100.00;98518.00;5065861;28;20218;-68
2022/05/05 08:38:26;;;;;;;12.50;11.27;;;;;;;14.89;99.66;98518.00;5060376;28;20240;-69
2022/05/05 08:40:53;;;;;;;12.00;10.80;;;;;;;14.94;99.75;98515.81;5069551;28;20308;-70
2022/05/05 08:43:19;;;;;;;14.23;12.37;;;;;;;14.94;99.25;98523.81;5067482;28;20713;-67
2022/05/05 08:45:46;;;;;;;13.10;11.80;;;;;;;14.95;99.70;98523.69;5069460;28;20214;-68
2022/05/05 08:48:13;;;;;;;12.30;11.10;;;;;;;15.02;99.77;98524.06;5071552;28;20214;-68
2022/05/05 08:50:44;;;;;;;13.60;12.27;;;;;;;15.09;97.55;98523.41;5069411;28;20213;-68
2022/05/05 08:53:14;;;;;;;14.10;12.70;;;;;;;15.09;96.58;98530.56;5067073;28;20323;-67
2022/05/05 08:55:42;;;;;;;13.67;12.27;;;;;;;15.18;95.75;98535.13;5065984;28;20436;-67
2022/05/05 08:58:08;;;;;;;12.70;11.40;;;;;;;15.28;95.57;98531.59;5069096;28;20226;-68
2022/05/05 09:00:35;;;;;;;13.63;12.23;;;;;;;15.44;94.92;98541.88;5069411;28;20208;-68
2022/05/05 09:03:04;;;;;;;14.53;12.27;;;;;;;15.60;93.43;98543.16;5066763;28;20228;-68
2022/05/05 09:05:48;;;;;;;13.23;11.93;;;;;;;15.59;91.88;98545.94;5054003;28;20668;-68
2022/05/05 09:08:26;;;;;;;13.83;11.80;;;;;;;15.55;91.79;98544.50;5069189;28;20294;-67
2022/05/05 09:10:55;;;;;;;11.97;10.87;;;;;;;15.59;93.45;98545.94;5067403;28;20217;-68
2022/05/05 09:13:22;;;;;;;13.07;11.60;;;;;;;15.61;92.79;98544.00;5055452;28;20238;-68
2022/05/05 09:15:48;;;;;;;14.27;12.67;;;;;;;15.54;92.32;98538.34;5069352;28;20237;-68
2022/05/05 09:18:17;;;;;;;15.07;12.43;;;;;;;15.49;89.59;98545.00;5071434;28;20770;-66
2022/05/05 09:20:45;;;;;;;14.17;12.40;;;;;;;15.35;90.49;98542.63;5074725;28;20221;-69
2022/05/05 09:23:27;;;;;;;13.67;11.30;;;;;;;15.39;92.68;98544.09;5075420;28;20217;-68
2022/05/05 09:25:55;;;;;;;15.83;12.60;;;;;;;15.40;90.59;98543.13;5075350;28;20209;-68
2022/05/05 09:28:23;;;;;;;14.37;12.33;;;;;;;15.46;91.29;98550.59;5075276;28;20217;-70
2022/05/05 09:30:51;;;;;;;15.57;12.90;;;;;;;15.52;91.40;98547.44;5073671;28;20216;-67
2022/05/05 09:33:18;;;;;;;16.67;13.83;;;;;;;15.56;89.31;98551.53;5075142;28;20241;-67
2022/05/05 09:35:45;;;;;;;17.97;14.67;;;;;;;15.63;88.54;98548.22;5074903;28;20679;-67
2022/05/05 09:38:12;;;;;;;14.63;13.13;;;;;;;15.78;88.60;98556.78;5073575;28;20268;-69
2022/05/05 09:40:38;;;;;;;18.90;15.03;;;;;;;15.90;86.24;98556.59;5074625;28;20221;-67
2022/05/05 09:43:12;;;;;;;17.63;14.37;;;;;;;15.98;85.10;98560.28;5074914;28;20327;-69
2022/05/05 09:45:38;;;;;;;18.10;16.20;;;;;;;16.08;84.97;98561.22;5075024;28;20217;-68
2022/05/05 09:48:06;;;;;;;19.87;15.63;;;;;;;16.10;84.10;98563.75;5075231;28;20220;-68
2022/05/05 09:50:34;;;;;;;16.87;15.17;;;;;;;16.07;83.01;98561.34;5074845;28;20222;-67
2022/05/05 09:58:36;;;;;;;16.57;14.00;;;;;;;16.11;83.94;98565.44;5070203;28;20649;-67
2022/05/05 10:01:09;;;;;;;16.87;14.63;;;;;;;16.26;84.05;98564.13;5062868;28;20223;-67
2022/05/05 10:04:00;;;;;;;15.20;13.60;;;;;;;16.55;84.52;98566.03;5065186;28;20284;-67
2022/05/05 10:06:30;;;;;;;15.40;13.87;;;;;;;16.85;82.09;98559.84;5061693;28;20229;-68
2022/05/05 10:09:00;;;;;;;15.93;14.23;;;;;;;16.92;81.19;98559.19;5058081;28;20668;-67
2022/05/05 10:11:26;;;;;;;15.43;13.93;;;;;;;17.11;80.44;98564.59;5058055;28;20727;-69
2022/05/05 10:13:56;;;;;;;16.93;15.33;;;;;;;16.88;80.04;98568.44;5058524;28;20740;-67
2022/05/05 10:16:23;;;;;;;16.13;14.50;;;;;;;16.86;80.63;98565.06;5060918;28;20227;-68
2022/05/05 10:18:50;;;;;;;15.13;13.60;;;;;;;16.86;81.96;98565.06;5058027;28;20219;-67
2022/05/05 10:21:27;;;;;;;16.53;14.93;;;;;;;16.98;81.46;98564.00;5058431;28;20219;-68
2022/05/05 10:24:05;;;;;;;15.33;13.90;;;;;;;17.16;81.41;98565.03;5071065;28;20220;-68
2022/05/05 10:26:32;;;;;;;16.47;14.77;;;;;;;17.34;81.70;98558.03;5063448;28;20207;-68
2022/05/05 10:29:01;;;;;;;16.77;15.17;;;;;;;17.49;78.98;98554.00;5074102;28;20215;-68
2022/05/05 10:31:44;;;;;;;15.63;14.10;;;;;;;17.47;78.56;98564.00;5073126;28;20250;-68
2022/05/05 10:34:18;;;;;;;17.40;14.73;;;;;;;17.64;77.70;98563.34;5072229;28;20235;-68
2022/05/05 10:36:59;;;;;;;18.10;15.17;;;;;;;17.70;77.06;98552.06;5074070;28;20272;-67
2022/05/05 10:39:39;;;;;;;17.73;15.93;;;;;;;17.59;76.35;98554.88;5074111;28;20583;-69
2022/05/05 10:42:32;;;;;;;17.50;15.80;;;;;;;17.79;76.47;98561.09;5073818;28;20261;-68
2022/05/05 10:45:12;;;;;;;16.83;15.13;;;;;;;17.95;75.30;98558.69;5073883;28;20276;-68
2022/05/05 10:48:16;;;;;;;17.70;15.83;;;;;;;17.78;74.30;98557.56;5073548;28;20222;-68
2022/05/05 10:50:50;;;;;;;17.57;15.47;;;;;;;17.75;75.88;98555.16;5064515;28;20223;-67
2022/05/05 10:53:28;;;;;;;17.73;15.90;;;;;;;17.76;75.33;98562.22;5061278;28;20216;-69
2022/05/05 10:55:55;;;;;;;16.63;14.93;;;;;;;17.80;75.74;98547.56;5073768;28;20219;-68
2022/05/05 10:58:55;;;;;;;18.90;16.87;;;;;;;17.94;77.04;98554.31;5070043;28;20215;-68
2022/05/05 11:01:23;;;;;;;19.37;16.57;;;;;;;17.88;74.53;98553.06;5058711;28;20207;-68
2022/05/05 11:04:34;;;;;;;19.47;17.47;;;;;;;17.79;75.04;98556.56;5072433;28;20449;-68
2022/05/05 11:07:30;;;;;;;18.13;16.23;;;;;;;17.89;74.38;98556.56;5069658;28;20226;-67
2022/05/05 11:09:57;;;;;;;19.17;17.20;;;;;;;18.05;73.00;98546.16;5067226;28;20631;-67
2022/05/05 11:12:25;;;;;;;18.90;16.90;;;;;;;18.17;73.62;98553.03;5065534;28;20216;-68
2022/05/05 11:23:28;;;;;;;18.47;16.63;;;;;;;18.24;71.04;98557.66;5068953;28;20214;-67
2022/05/05 11:25:56;;;;;;;18.60;16.70;;;;;;;18.14;72.62;98551.50;5068921;28;20673;-67
2022/05/05 11:28:23;;;;;;;20.70;17.63;;;;;;;18.03;72.46;98559.66;5071735;28;20219;-69
2022/05/05 11:30:49;;;;;;;17.90;16.10;;;;;;;17.82;72.99;98560.78;5069548;28;20722;-69
2022/05/05 11:33:20;;;;;;;17.60;15.83;;;;;;;17.87;75.22;98562.06;5071493;28;20214;-69
2022/05/05 11:35:57;;;;;;;17.80;15.90;;;;;;;17.92;75.19;98567.81;5068952;28;21006;-70
2022/05/05 11:38:26;;;;;;;19.60;17.60;;;;;;;17.77;74.69;98558.56;5071066;28;20219;-70
2022/05/05 11:41:08;;;;;;;19.17;17.20;;;;;;;17.49;77.49;98548.66;5072807;28;20216;-70
2022/05/05 11:46:20;;;;;;;20.17;18.07;;;;;;;16.96;82.91;98555.25;5072522;28;20289;-71
2022/05/05 11:48:56;;;;;;;21.53;18.57;;;;;;;16.90;84.67;98554.97;5072572;28;20219;-70
2022/05/05 11:51:25;;;;;;;21.73;19.23;;;;;;;16.78;84.76;98550.69;5072608;28;20579;-69
2022/05/05 11:53:59;;;;;;;22.73;20.37;;;;;;;16.50;87.46;98540.72;5072548;28;20238;-69
2022/05/05 11:56:27;;;;;;;22.57;20.17;;;;;;;16.22;88.28;98547.53;5072479;28;20223;-70
2022/05/05 12:01:38;;;;;;;20.80;18.60;;;;;;;15.78;93.49;98549.63;5064041;28;20311;-71
2022/05/05 12:04:08;;;;;;;24.07;20.93;;;;;;;15.64;95.97;98549.09;5071000;28;20680;-69
2022/05/05 12:06:35;;;;;;;28.20;22.83;;;;;;;15.39;99.95;98550.25;5072036;28;20860;-69
2022/05/05 12:09:01;;;;;;;25.67;22.40;;;;;;;15.20;100.00;98549.16;5072029;28;20672;-69